Time;durP1;ratioP1;P1;durP2;ratioP2;P2;SDS_P1;SDS_P2;PMS_P1;PMS_P2;Temp;Humidity;BMP_temperature;BMP_pressure;BME280_temperature;BME280_humidity;BME280_pressure;Samples;Min_cycle;Max_cycle;Signal;HPM_P1;HPM_P2
2022/07/28 00:00:47;;;;;;;5.68;1.60;;;;;15.00;94202.00;;;;7425160;19;20132;-91
2022/07/28 00:03:15;;;;;;;2.65;1.65;;;;;15.10;94200.00;;;;7428066;19;20154;-92
2022/07/28 00:05:54;;;;;;;5.55;1.75;;;;;15.00;94196.00;;;;7415873;19;20140;-92
2022/07/28 00:11:40;;;;;;;3.08;1.40;;;;;14.80;94188.00;;;;7391024;19;20625;-70
2022/07/28 00:14:21;;;;;;;2.97;1.50;;;;;14.60;94185.00;;;;7396686;19;20129;-68
2022/07/28 00:16:55;;;;;;;3.22;1.52;;;;;14.60;94185.00;;;;7399126;19;20137;-68
2022/07/28 00:19:22;;;;;;;3.42;1.70;;;;;14.70;94185.00;;;;7395222;19;20125;-70
2022/07/28 00:21:50;;;;;;;3.08;1.60;;;;;14.60;94181.00;;;;7397287;19;20140;-69
2022/07/28 00:24:24;;;;;;;3.88;1.60;;;;;14.50;94181.00;;;;7396808;19;20152;-69
2022/07/28 00:26:52;;;;;;;4.55;1.67;;;;;14.40;94179.00;;;;7395946;19;20617;-69
2022/07/28 00:29:19;;;;;;;2.63;1.60;;;;;14.40;94172.00;;;;7391961;19;20152;-69
2022/07/28 00:32:13;;;;;;;8.25;1.48;;;;;14.40;94181.00;;;;7392771;19;20593;-71
2022/07/28 00:34:41;;;;;;;4.00;1.60;;;;;14.30;94173.00;;;;7393118;19;20595;-69
2022/07/28 00:37:19;;;;;;;3.60;1.38;;;;;14.30;94176.00;;;;7390362;19;20161;-69
2022/07/28 00:39:47;;;;;;;6.30;1.75;;;;;14.30;94172.00;;;;7393141;19;20152;-69
2022/07/28 00:42:19;;;;;;;4.22;1.70;;;;;14.20;94170.00;;;;7398394;19;20157;-70
2022/07/28 00:44:53;;;;;;;6.32;2.22;;;;;14.20;94167.00;;;;7402187;19;20155;-70
2022/07/28 00:47:20;;;;;;;3.58;1.52;;;;;14.20;94162.00;;;;7398115;19;20148;-68
2022/07/28 00:49:49;;;;;;;4.65;1.80;;;;;14.20;94160.00;;;;7399692;19;20621;-69
2022/07/28 00:52:23;;;;;;;6.70;1.50;;;;;14.20;94159.00;;;;7401551;19;20152;-68
2022/07/28 00:54:51;;;;;;;7.40;1.75;;;;;14.10;94159.00;;;;7401388;19;20132;-71
2022/07/28 00:57:20;;;;;;;3.03;1.58;;;;;14.00;94159.00;;;;7397558;19;20145;-71
2022/07/28 00:59:54;;;;;;;4.57;1.50;;;;;13.90;94149.00;;;;7398912;19;20628;-68
2022/07/28 01:02:28;;;;;;;6.00;1.60;;;;;13.90;94151.00;;;;7400062;19;20638;-71
2022/07/28 01:05:02;;;;;;;4.07;1.60;;;;;13.90;94148.00;;;;7401265;19;20615;-68
2022/07/28 01:07:48;;;;;;;2.58;1.63;;;;;13.90;94143.00;;;;7398039;19;20602;-68
2022/07/28 01:10:51;;;;;;;3.83;1.90;;;;;13.90;94145.00;;;;7396389;19;20163;-67
2022/07/28 01:13:53;;;;;;;3.10;1.50;;;;;13.80;94140.00;;;;7399146;19;20139;-69
2022/07/28 01:16:28;;;;;;;4.30;1.40;;;;;13.80;94134.00;;;;7397905;19;20125;-69
2022/07/28 01:19:09;;;;;;;4.53;1.70;;;;;13.70;94136.00;;;;7400903;19;20153;-70
2022/07/28 01:21:45;;;;;;;2.53;1.40;;;;;13.70;94128.00;;;;7400260;19;20136;-70
2022/07/28 01:24:26;;;;;;;6.45;1.63;;;;;13.60;94135.00;;;;7396537;19;20507;-69
2022/07/28 01:27:13;;;;;;;4.75;1.67;;;;;13.60;94133.00;;;;7399062;19;20145;-68
2022/07/28 01:30:24;;;;;;;2.40;1.38;;;;;13.60;94123.00;;;;7398602;19;20136;-69
2022/07/28 01:33:08;;;;;;;2.58;1.50;;;;;13.60;94123.00;;;;7399113;19;20133;-68
2022/07/28 01:35:57;;;;;;;4.50;1.63;;;;;13.60;94125.00;;;;7396924;19;20611;-69
2022/07/28 01:38:33;;;;;;;2.53;1.58;;;;;13.50;94119.00;;;;7398629;19;20492;-69
2022/07/28 01:41:08;;;;;;;4.38;1.80;;;;;13.60;94119.00;;;;7398950;19;20148;-69
2022/07/28 01:43:55;;;;;;;2.55;1.70;;;;;13.50;94116.00;;;;7397545;19;20661;-69
2022/07/28 01:46:24;;;;;;;3.40;1.60;;;;;13.50;94110.00;;;;7396563;19;20281;-69
2022/07/28 01:49:01;;;;;;;5.53;1.73;;;;;13.30;94113.00;;;;7396638;19;20592;-69
2022/07/28 01:51:32;;;;;;;4.05;1.63;;;;;13.30;94116.00;;;;7397308;19;20530;-70
2022/07/28 01:54:07;;;;;;;3.28;1.75;;;;;13.40;94113.00;;;;7398036;19;20124;-69
2022/07/28 01:56:37;;;;;;;3.35;1.67;;;;;13.40;94110.00;;;;7397152;19;20821;-69
2022/07/28 01:59:08;;;;;;;3.35;2.00;;;;;13.40;94117.00;;;;7399053;19;20208;-70
2022/07/28 02:01:44;;;;;;;3.35;1.67;;;;;13.30;94112.00;;;;7397432;19;20147;-68
2022/07/28 02:04:14;;;;;;;4.30;1.73;;;;;13.30;94109.00;;;;7396564;19;20609;-69
2022/07/28 02:06:44;;;;;;;5.53;1.60;;;;;13.30;94099.00;;;;7397009;19;20129;-71
2022/07/28 02:09:32;;;;;;;5.20;1.60;;;;;13.30;94096.00;;;;7392082;19;20136;-71
2022/07/28 02:12:08;;;;;;;3.05;1.70;;;;;13.30;94101.00;;;;7396315;19;20566;-70
2022/07/28 02:14:46;;;;;;;4.32;1.60;;;;;13.30;94102.00;;;;7397658;19;20168;-70
2022/07/28 02:17:18;;;;;;;3.17;1.35;;;;;13.30;94086.00;;;;7394059;19;20598;-70
2022/07/28 02:19:53;;;;;;;5.95;1.92;;;;;13.40;94096.00;;;;7398031;19;20587;-70
2022/07/28 02:22:21;;;;;;;6.72;1.70;;;;;13.50;94089.00;;;;7397995;19;20125;-70
2022/07/28 02:24:49;;;;;;;3.55;1.40;;;;;13.30;94083.00;;;;7395468;19;20179;-70
2022/07/28 02:27:34;;;;;;;4.82;1.50;;;;;13.20;94082.00;;;;7393774;19;20156;-70
2022/07/28 02:30:14;;;;;;;2.22;1.60;;;;;13.20;94087.00;;;;7396870;19;20144;-71
2022/07/28 02:32:52;;;;;;;3.88;1.30;;;;;13.20;94091.00;;;;7397835;19;20132;-71
2022/07/28 02:35:34;;;;;;;11.02;1.98;;;;;13.20;94085.00;;;;7393541;19;20189;-70
2022/07/28 02:38:18;;;;;;;3.75;1.70;;;;;13.20;94082.00;;;;7395283;19;20598;-70
2022/07/28 02:40:50;;;;;;;1.83;1.50;;;;;13.20;94084.00;;;;7396378;19;20161;-72
2022/07/28 02:43:28;;;;;;;3.40;1.60;;;;;13.10;94081.00;;;;7394849;19;20151;-70
2022/07/28 02:46:20;;;;;;;4.45;1.70;;;;;13.10;94079.00;;;;7395744;19;20143;-71
2022/07/28 02:49:03;;;;;;;3.38;1.90;;;;;13.30;94069.00;;;;7394655;19;20128;-70
2022/07/28 02:51:32;;;;;;;5.88;1.95;;;;;13.20;94071.00;;;;7393567;19;20618;-70
2022/07/28 02:54:07;;;;;;;4.07;1.50;;;;;13.20;94069.00;;;;7395839;19;20120;-70
2022/07/28 02:56:35;;;;;;;3.53;1.60;;;;;13.20;94070.00;;;;7396015;19;20152;-70
2022/07/28 02:59:03;;;;;;;3.95;1.58;;;;;13.20;94077.00;;;;7396170;19;20152;-70
2022/07/28 03:01:37;;;;;;;4.25;1.60;;;;;13.20;94077.00;;;;7394377;19;20511;-70
2022/07/28 03:04:05;;;;;;;5.50;1.75;;;;;13.20;94080.00;;;;7392362;19;20480;-71
2022/07/28 03:06:33;;;;;;;4.53;1.60;;;;;13.10;94071.00;;;;7395591;19;20144;-69
2022/07/28 03:09:21;;;;;;;4.53;1.58;;;;;13.10;94072.00;;;;7396145;19;20644;-71
2022/07/28 03:11:56;;;;;;;3.35;1.50;;;;;13.00;94070.00;;;;7395265;19;20516;-71
2022/07/28 03:14:30;;;;;;;3.65;1.52;;;;;13.00;94065.00;;;;7397390;19;20522;-70
2022/07/28 03:16:57;;;;;;;4.07;1.60;;;;;12.80;94076.00;;;;7397616;19;20155;-70
2022/07/28 03:19:25;;;;;;;4.55;1.60;;;;;12.90;94077.00;;;;7394442;19;20212;-70
2022/07/28 03:21:59;;;;;;;3.97;1.75;;;;;12.80;94072.00;;;;7394986;19;20129;-70
2022/07/28 03:24:34;;;;;;;4.47;1.70;;;;;12.70;94067.00;;;;7393297;19;20610;-70
2022/07/28 03:27:18;;;;;;;5.32;1.73;;;;;12.70;94076.00;;;;7394251;19;20167;-70
2022/07/28 03:29:51;;;;;;;4.35;1.80;;;;;12.70;94073.00;;;;7394148;19;20586;-70
2022/07/28 03:32:34;;;;;;;4.85;1.80;;;;;12.70;94076.00;;;;7395785;19;20506;-71
2022/07/28 03:35:05;;;;;;;3.10;1.40;;;;;12.80;94074.00;;;;7395895;19;20224;-70
2022/07/28 03:38:04;;;;;;;6.57;1.83;;;;;12.90;94081.00;;;;7393457;19;20137;-68
2022/07/28 03:40:33;;;;;;;4.93;1.67;;;;;12.80;94088.00;;;;7394557;19;20144;-69
2022/07/28 03:43:15;;;;;;;3.60;1.60;;;;;12.80;94090.00;;;;7391169;19;20136;-69
2022/07/28 03:45:44;;;;;;;2.72;1.55;;;;;12.90;94095.00;;;;7394702;19;20129;-69
2022/07/28 03:48:22;;;;;;;3.85;1.73;;;;;12.90;94087.00;;;;7392915;19;20144;-70
2022/07/28 03:50:50;;;;;;;5.03;1.88;;;;;12.80;94092.00;;;;7394885;19;20232;-69
2022/07/28 03:53:24;;;;;;;11.45;2.20;;;;;12.90;94087.00;;;;7394320;19;20173;-69
2022/07/28 03:55:58;;;;;;;2.10;1.50;;;;;12.90;94095.00;;;;7394445;19;20137;-70
2022/07/28 03:58:27;;;;;;;3.13;1.70;;;;;12.90;94095.00;;;;7392954;19;20685;-71
2022/07/28 04:00:56;;;;;;;4.25;1.60;;;;;13.10;94088.00;;;;7396893;19;20136;-69
2022/07/28 04:03:30;;;;;;;2.80;1.70;;;;;13.10;94083.00;;;;7392516;19;20136;-69
2022/07/28 04:06:10;;;;;;;4.78;1.88;;;;;13.10;94081.00;;;;7392849;19;20505;-70
2022/07/28 04:08:45;;;;;;;4.72;1.75;;;;;13.10;94088.00;;;;7392936;19;20506;-70
2022/07/28 04:11:19;;;;;;;4.32;2.08;;;;;13.00;94086.00;;;;7390278;19;20525;-69
2022/07/28 04:13:54;;;;;;;5.80;1.75;;;;;13.00;94087.00;;;;7391288;19;20140;-69
2022/07/28 04:16:22;;;;;;;4.40;1.52;;;;;13.10;94086.00;;;;7391331;19;20168;-69
2022/07/28 04:18:50;;;;;;;7.43;1.90;;;;;13.20;94078.00;;;;7394896;19;20204;-69
2022/07/28 04:21:24;;;;;;;3.28;1.73;;;;;13.20;94084.00;;;;7391113;19;20532;-69
2022/07/28 04:23:52;;;;;;;4.28;1.80;;;;;13.30;94078.00;;;;7390952;19;20492;-71
2022/07/28 04:26:26;;;;;;;8.02;2.78;;;;;13.20;94079.00;;;;7394636;19;20128;-69
2022/07/28 04:29:01;;;;;;;4.72;2.35;;;;;13.30;94076.00;;;;7393154;19;20141;-69
2022/07/28 04:31:30;;;;;;;2.70;1.98;;;;;13.30;94075.00;;;;7390737;19;20215;-69
2022/07/28 04:33:58;;;;;;;7.15;1.80;;;;;13.40;94085.00;;;;7392824;19;20172;-69
2022/07/28 04:36:33;;;;;;;5.10;1.90;;;;;13.50;94073.00;;;;7393575;19;20160;-70
2022/07/28 04:39:00;;;;;;;2.88;1.90;;;;;13.60;94073.00;;;;7395393;19;20139;-69
2022/07/28 04:41:28;;;;;;;3.38;2.05;;;;;13.70;94079.00;;;;7392344;19;20780;-69
2022/07/28 04:44:02;;;;;;;5.72;2.10;;;;;13.80;94075.00;;;;7395782;19;20622;-69
2022/07/28 04:46:30;;;;;;;6.80;1.90;;;;;13.80;94082.00;;;;7394724;19;20132;-68
2022/07/28 04:48:57;;;;;;;3.88;1.88;;;;;14.00;94068.00;;;;7396906;19;20579;-70
2022/07/28 04:51:31;;;;;;;6.45;2.30;;;;;14.00;94072.00;;;;7396343;19;20125;-68
2022/07/28 04:53:58;;;;;;;3.45;2.03;;;;;14.00;94077.00;;;;7394235;19;20145;-69
2022/07/28 04:56:26;;;;;;;3.63;2.05;;;;;14.00;94080.00;;;;7396146;19;20149;-70
2022/07/28 04:59:00;;;;;;;3.47;2.38;;;;;14.00;94074.00;;;;7397652;19;20172;-68
2022/07/28 05:01:30;;;;;;;3.78;2.30;;;;;14.10;94077.00;;;;7386929;19;20152;-69
2022/07/28 05:03:57;;;;;;;3.67;2.03;;;;;14.20;94069.00;;;;7392308;19;20476;-70
2022/07/28 05:06:33;;;;;;;2.75;1.90;;;;;14.30;94079.00;;;;7391669;19;20132;-69
2022/07/28 05:09:08;;;;;;;2.40;1.70;;;;;14.40;94068.00;;;;7391799;19;20160;-69
2022/07/28 05:11:50;;;;;;;4.82;2.13;;;;;14.50;94071.00;;;;7387100;19;20180;-69
2022/07/28 05:14:18;;;;;;;3.83;1.92;;;;;14.60;94081.00;;;;7388303;19;20255;-69
2022/07/28 05:16:52;;;;;;;4.43;2.00;;;;;14.70;94069.00;;;;7393994;19;20136;-69
2022/07/28 05:19:20;;;;;;;2.75;2.05;;;;;14.80;94064.00;;;;7393563;19;20141;-69
2022/07/28 05:21:48;;;;;;;8.00;2.20;;;;;15.10;94070.00;;;;7390470;19;20149;-68
2022/07/28 05:24:22;;;;;;;7.35;2.30;;;;;15.30;94065.00;;;;7391028;19;20640;-69
2022/07/28 05:26:50;;;;;;;2.65;1.67;;;;;15.50;94062.00;;;;7398057;19;20470;-67
2022/07/28 05:29:18;;;;;;;2.40;1.90;;;;;15.70;94070.00;;;;7399828;19;20137;-69
2022/07/28 05:32:11;;;;;;;4.97;2.30;;;;;16.00;94068.00;;;;7399241;19;20618;-68
2022/07/28 05:34:45;;;;;;;4.30;2.35;;;;;16.10;94070.00;;;;7401818;19;20152;-69
2022/07/28 05:37:19;;;;;;;4.80;2.55;;;;;16.30;94066.00;;;;7406069;19;20204;-69
2022/07/28 05:39:47;;;;;;;5.28;2.10;;;;;16.30;94067.00;;;;7399139;19;20137;-68
2022/07/28 05:42:14;;;;;;;6.55;2.42;;;;;16.40;94072.00;;;;7396092;19;20149;-70
2022/07/28 05:44:48;;;;;;;3.15;2.13;;;;;16.50;94075.00;;;;7397434;19;20610;-70
2022/07/28 05:47:16;;;;;;;6.80;2.28;;;;;16.70;94067.00;;;;7401070;19;20137;-68
2022/07/28 05:49:44;;;;;;;7.47;2.22;;;;;16.90;94065.00;;;;7394404;19;20468;-69
2022/07/28 05:52:18;;;;;;;9.75;2.13;;;;;17.10;94074.00;;;;7396493;19;20151;-71
2022/07/28 05:54:45;;;;;;;5.75;2.10;;;;;17.30;94073.00;;;;7398727;19;20121;-71
2022/07/28 05:57:13;;;;;;;5.78;2.60;;;;;17.40;94077.00;;;;7398917;19;20132;-70
2022/07/28 05:59:47;;;;;;;4.68;2.22;;;;;17.40;94077.00;;;;7394864;19;20156;-71
2022/07/28 06:02:15;;;;;;;4.47;2.20;;;;;17.60;94076.00;;;;7393719;19;20129;-71
2022/07/28 06:04:42;;;;;;;5.50;2.08;;;;;17.60;94078.00;;;;7397950;19;20614;-71
2022/07/28 06:07:17;;;;;;;3.15;2.58;;;;;17.80;94072.00;;;;7397377;19;20578;-71
2022/07/28 06:09:51;;;;;;;5.43;2.30;;;;;17.80;94079.00;;;;7393644;19;20622;-70
2022/07/28 06:12:42;;;;;;;5.88;2.42;;;;;17.90;94074.00;;;;7395540;19;20172;-70
2022/07/28 06:15:18;;;;;;;3.75;2.80;;;;;18.10;94065.00;;;;7396731;19;20155;-72
2022/07/28 06:17:54;;;;;;;4.57;2.78;;;;;18.30;94074.00;;;;7395633;19;20157;-71
2022/07/28 06:20:23;;;;;;;7.28;3.47;;;;;18.50;94060.00;;;;7393955;19;20176;-71
2022/07/28 06:22:53;;;;;;;8.57;3.00;;;;;18.80;94067.00;;;;7395030;19;20218;-72
2022/07/28 06:25:30;;;;;;;3.22;2.47;;;;;19.00;94061.00;;;;7393759;19;20223;-71
2022/07/28 06:28:01;;;;;;;5.85;3.28;;;;;19.00;94062.00;;;;7395150;19;20147;-72
2022/07/28 06:30:39;;;;;;;5.32;3.47;;;;;19.10;94062.00;;;;7392990;19;20144;-71
2022/07/28 06:33:07;;;;;;;5.65;3.28;;;;;19.50;94063.00;;;;7394607;19;20609;-71
2022/07/28 06:35:38;;;;;;;8.13;3.13;;;;;19.70;94059.00;;;;7396062;19;20133;-73
2022/07/28 06:38:19;;;;;;;5.20;3.60;;;;;20.10;94058.00;;;;7395482;19;20623;-72
2022/07/28 06:40:47;;;;;;;16.27;3.65;;;;;20.00;94069.00;;;;7395593;19;20156;-70
2022/07/28 06:43:21;;;;;;;7.03;3.70;;;;;19.80;94069.00;;;;7396488;19;20148;-70
2022/07/28 06:45:50;;;;;;;7.68;4.15;;;;;19.60;94069.00;;;;7393877;19;20224;-71
2022/07/28 06:48:18;;;;;;;4.90;3.33;;;;;19.60;94068.00;;;;7394702;19;20162;-72
2022/07/28 06:50:58;;;;;;;4.90;3.60;;;;;19.80;94068.00;;;;7395374;19;20148;-72
2022/07/28 06:53:26;;;;;;;7.45;3.33;;;;;20.20;94065.00;;;;7391693;19;20137;-70
2022/07/28 06:56:03;;;;;;;5.80;3.58;;;;;20.10;94069.00;;;;7389292;19;20518;-73
2022/07/28 06:58:31;;;;;;;7.97;4.07;;;;;20.30;94071.00;;;;7390344;19;20678;-71
2022/07/28 07:01:01;;;;;;;3.97;3.40;;;;;20.40;94069.00;;;;7394140;19;20140;-72
2022/07/28 07:03:35;;;;;;;6.50;4.03;;;;;20.50;94074.00;;;;7391817;19;20142;-70
2022/07/28 07:06:03;;;;;;;5.13;3.67;;;;;20.20;94071.00;;;;7393748;19;20610;-71
2022/07/28 07:08:31;;;;;;;7.00;3.80;;;;;20.30;94068.00;;;;7393107;19;20147;-71
2022/07/28 07:11:12;;;;;;;6.13;3.85;;;;;20.30;94072.00;;;;7392534;19;20540;-71
2022/07/28 07:13:46;;;;;;;9.27;4.00;;;;;20.30;94075.00;;;;7393783;19;20143;-71
2022/07/28 07:16:20;;;;;;;3.67;3.28;;;;;20.40;94069.00;;;;7394129;19;20144;-71
2022/07/28 07:18:51;;;;;;;5.68;3.92;;;;;20.50;94077.00;;;;7395089;19;20645;-71
2022/07/28 07:21:19;;;;;;;5.10;3.92;;;;;20.50;94066.00;;;;7396059;19;20504;-71
2022/07/28 07:23:53;;;;;;;3.97;3.67;;;;;20.70;94079.00;;;;7392547;19;20846;-71
2022/07/28 07:26:21;;;;;;;5.03;4.03;;;;;20.80;94072.00;;;;7395025;19;20175;-70
2022/07/28 07:28:49;;;;;;;5.97;3.53;;;;;21.00;94071.00;;;;7395394;19;20139;-71
2022/07/28 07:31:23;;;;;;;5.20;4.15;;;;;21.20;94073.00;;;;7395481;19;20220;-72
2022/07/28 07:33:51;;;;;;;7.35;4.28;;;;;21.20;94062.00;;;;7393358;19;20149;-71
2022/07/28 07:36:18;;;;;;;6.97;4.00;;;;;21.40;94066.00;;;;7393164;19;20171;-70
2022/07/28 07:38:53;;;;;;;4.82;4.15;;;;;21.70;94065.00;;;;7394594;19;20145;-72
2022/07/28 07:41:21;;;;;;;6.18;4.60;;;;;21.70;94063.00;;;;7394611;19;20145;-71
2022/07/28 07:43:49;;;;;;;5.43;3.55;;;;;21.90;94066.00;;;;7391612;19;20614;-70
2022/07/28 07:46:23;;;;;;;5.05;4.13;;;;;22.10;94068.00;;;;7390351;19;20149;-72
2022/07/28 07:48:51;;;;;;;4.07;3.75;;;;;22.30;94075.00;;;;7392462;19;20149;-72
2022/07/28 07:51:19;;;;;;;5.97;4.10;;;;;22.40;94070.00;;;;7393374;19;20523;-71
2022/07/28 07:53:53;;;;;;;6.00;4.13;;;;;22.80;94068.00;;;;7391584;19;20144;-70
2022/07/28 07:56:21;;;;;;;4.25;3.60;;;;;22.90;94061.00;;;;7391772;19;20166;-70
2022/07/28 07:58:50;;;;;;;8.43;4.68;;;;;23.10;94062.00;;;;7392293;19;20133;-72
2022/07/28 08:01:24;;;;;;;6.88;4.30;;;;;23.00;94064.00;;;;7395835;19;20128;-72
2022/07/28 08:03:52;;;;;;;5.68;4.20;;;;;23.10;94064.00;;;;7390065;19;20176;-71
2022/07/28 08:06:20;;;;;;;7.18;4.43;;;;;23.50;94065.00;;;;7392672;19;20121;-71
2022/07/28 08:08:55;;;;;;;6.47;4.45;;;;;23.40;94060.00;;;;7392640;19;20159;-70
2022/07/28 08:11:30;;;;;;;6.55;4.07;;;;;23.30;94064.00;;;;7388529;19;20576;-70
2022/07/28 08:14:11;;;;;;;5.40;4.53;;;;;23.10;94066.00;;;;7390599;19;20153;-73
2022/07/28 08:16:39;;;;;;;5.35;4.30;;;;;23.40;94068.00;;;;7390379;19;20150;-72
2022/07/28 08:19:13;;;;;;;4.68;4.13;;;;;23.10;94059.00;;;;7391875;19;20145;-73
2022/07/28 08:21:41;;;;;;;5.53;4.47;;;;;23.30;94054.00;;;;7390513;19;20151;-72
2022/07/28 08:24:08;;;;;;;5.60;4.28;;;;;23.40;94068.00;;;;7388600;19;20191;-71
2022/07/28 08:26:58;;;;;;;7.13;3.90;;;;;23.80;94058.00;;;;7392949;19;20489;-70
2022/07/28 08:29:26;;;;;;;5.43;3.90;;;;;24.00;94056.00;;;;7388875;19;20511;-71
2022/07/28 08:32:02;;;;;;;6.63;4.40;;;;;24.30;94054.00;;;;7391631;19;20608;-70
2022/07/28 08:34:31;;;;;;;5.28;3.92;;;;;24.70;94049.00;;;;7390477;19;20147;-73
2022/07/28 08:37:04;;;;;;;6.68;3.70;;;;;24.60;94053.00;;;;7392438;19;20512;-70
2022/07/28 08:39:38;;;;;;;4.60;3.95;;;;;25.00;94054.00;;;;7390966;19;20128;-72
2022/07/28 08:42:22;;;;;;;7.72;3.60;;;;;25.20;94055.00;;;;7390357;19;20160;-73
2022/07/28 08:45:05;;;;;;;8.93;4.00;;;;;25.10;94061.00;;;;7391502;19;20141;-71
2022/07/28 08:47:36;;;;;;;7.53;3.60;;;;;25.20;94059.00;;;;7387669;19;20604;-73
2022/07/28 08:50:31;;;;;;;7.40;4.20;;;;;25.40;94062.00;;;;7390322;19;20155;-70
2022/07/28 08:53:00;;;;;;;8.35;3.55;;;;;25.60;94062.00;;;;7391863;19;20194;-70
2022/07/28 08:55:35;;;;;;;5.93;3.70;;;;;25.30;94053.00;;;;7391557;19;20269;-75
2022/07/28 08:58:03;;;;;;;5.78;3.95;;;;;25.20;94065.00;;;;7389302;19;20155;-72
2022/07/28 09:00:31;;;;;;;6.30;4.38;;;;;25.20;94059.00;;;;7392198;19;20606;-71
2022/07/28 09:03:07;;;;;;;5.55;4.10;;;;;25.60;94058.00;;;;7399631;19;20140;-73
2022/07/28 09:05:39;;;;;;;5.50;3.95;;;;;25.10;94057.00;;;;7401389;19;20136;-72
2022/07/28 09:08:15;;;;;;;4.63;3.72;;;;;25.00;94069.00;;;;7400866;19;20143;-74
2022/07/28 09:10:50;;;;;;;7.85;3.97;;;;;25.30;94058.00;;;;7399227;19;20172;-74
2022/07/28 09:13:25;;;;;;;10.50;4.47;;;;;25.60;94064.00;;;;7402519;19;20117;-73
2022/07/28 09:15:53;;;;;;;4.68;4.15;;;;;25.40;94063.00;;;;7398106;19;20501;-73
2022/07/28 09:18:21;;;;;;;5.28;3.80;;;;;25.70;94060.00;;;;7394691;19;20184;-72
2022/07/28 09:20:56;;;;;;;7.72;4.57;;;;;25.60;94068.00;;;;7398434;19;20479;-72
2022/07/28 09:23:24;;;;;;;6.00;4.30;;;;;25.40;94069.00;;;;7398200;19;20145;-71
2022/07/28 09:26:12;;;;;;;4.43;4.03;;;;;25.60;94066.00;;;;7396602;19;20140;-72
2022/07/28 09:28:52;;;;;;;11.85;3.88;;;;;25.50;94067.00;;;;7398276;19;20141;-70
2022/07/28 09:31:21;;;;;;;9.13;4.65;;;;;25.70;94064.00;;;;7396181;19;20501;-71
2022/07/28 09:34:01;;;;;;;5.45;4.38;;;;;26.00;94055.00;;;;7396564;19;20208;-71
2022/07/28 09:36:37;;;;;;;6.28;3.58;;;;;26.30;94063.00;;;;7397943;19;20129;-71
2022/07/28 09:39:26;;;;;;;4.80;3.83;;;;;26.00;94053.00;;;;7397894;19;20148;-71
2022/07/28 09:41:54;;;;;;;8.70;5.15;;;;;26.10;94063.00;;;;7397440;19;20148;-70
2022/07/28 09:44:28;;;;;;;7.53;4.40;;;;;26.50;94060.00;;;;7396295;19;20158;-71
2022/07/28 09:46:56;;;;;;;7.22;4.35;;;;;26.80;94050.00;;;;7399018;19;20128;-71
2022/07/28 09:49:41;;;;;;;8.65;4.32;;;;;26.60;94052.00;;;;7397878;19;20464;-73
2022/07/28 09:52:30;;;;;;;9.30;4.80;;;;;26.80;94051.00;;;;7396164;19;20151;-71
2022/07/28 09:55:02;;;;;;;8.15;4.65;;;;;26.90;94049.00;;;;7399091;19;20161;-72
2022/07/28 09:57:38;;;;;;;8.65;4.85;;;;;26.70;94049.00;;;;7395932;19;20604;-71
2022/07/28 10:00:23;;;;;;;6.88;4.28;;;;;27.20;94053.00;;;;7392359;19;20144;-73
2022/07/28 10:02:58;;;;;;;6.70;4.78;;;;;27.20;94047.00;;;;7396959;19;20237;-72
2022/07/28 10:05:39;;;;;;;6.28;4.95;;;;;27.10;94044.00;;;;7398387;19;20159;-75
2022/07/28 10:08:37;;;;;;;7.10;4.10;;;;;26.90;94053.00;;;;7395311;19;20172;-74
2022/07/28 10:11:23;;;;;;;7.20;4.88;;;;;26.60;94055.00;;;;7395732;19;20193;-71
2022/07/28 10:14:07;;;;;;;10.35;4.50;;;;;26.70;94050.00;;;;7394445;19;20165;-73
2022/07/28 10:16:40;;;;;;;7.85;4.22;;;;;26.80;94048.00;;;;7395641;19;20145;-73
2022/07/28 10:19:15;;;;;;;11.63;4.55;;;;;26.40;94049.00;;;;7396640;19;20536;-73
2022/07/28 10:21:44;;;;;;;5.15;4.20;;;;;26.40;94043.00;;;;7394042;19;20491;-74
2022/07/28 10:24:21;;;;;;;8.38;5.13;;;;;26.50;94060.00;;;;7394650;19;20208;-70
2022/07/28 10:26:58;;;;;;;6.93;4.47;;;;;26.10;94050.00;;;;7396894;19;20125;-71
2022/07/28 10:29:30;;;;;;;7.47;4.55;;;;;26.40;94049.00;;;;7396646;19;20197;-72
2022/07/28 10:32:06;;;;;;;5.63;4.45;;;;;26.50;94047.00;;;;7394344;19;20602;-72
2022/07/28 10:34:44;;;;;;;4.55;4.10;;;;;27.50;94036.00;;;;7396394;19;20149;-74
2022/07/28 10:37:22;;;;;;;5.15;4.40;;;;;27.90;94027.00;;;;7396930;19;20139;-70
2022/07/28 10:40:05;;;;;;;9.32;4.50;;;;;28.80;94035.00;;;;7393173;19;20610;-71
2022/07/28 10:42:40;;;;;;;6.90;4.45;;;;;29.10;94025.00;;;;7395980;19;20137;-73
2022/07/28 10:45:11;;;;;;;5.78;4.32;;;;;29.50;94022.00;;;;7396611;19;20145;-72
2022/07/28 10:47:40;;;;;;;5.63;4.30;;;;;30.00;94022.00;;;;7395128;19;20534;-72
2022/07/28 10:50:15;;;;;;;10.57;5.07;;;;;29.00;94049.00;;;;7392333;19;20590;-72
2022/07/28 10:52:43;;;;;;;6.00;4.68;;;;;28.20;94046.00;;;;7395251;19;20600;-73
2022/07/28 10:55:49;;;;;;;5.22;4.72;;;;;27.80;94052.00;;;;7395360;19;20125;-71
2022/07/28 10:58:35;;;;;;;7.18;4.40;;;;;27.20;94055.00;;;;7394459;19;20590;-72
2022/07/28 11:01:03;;;;;;;7.53;4.07;;;;;27.20;94047.00;;;;7396928;19;20152;-74
2022/07/28 11:03:57;;;;;;;5.63;3.90;;;;;27.20;94049.00;;;;7390008;19;20133;-71
2022/07/28 11:06:33;;;;;;;10.40;4.50;;;;;26.50;94050.00;;;;7394311;19;20144;-73
2022/07/28 11:09:16;;;;;;;6.82;4.47;;;;;27.10;94038.00;;;;7394444;19;20129;-71
2022/07/28 11:11:58;;;;;;;5.07;4.40;;;;;27.20;94044.00;;;;7390725;19;20180;-72
2022/07/28 11:14:37;;;;;;;5.05;4.55;;;;;27.00;94049.00;;;;7395260;19;20137;-71
2022/07/28 11:17:05;;;;;;;7.75;4.70;;;;;27.10;94049.00;;;;7395993;19;20171;-73
2022/07/28 11:19:45;;;;;;;6.70;4.35;;;;;27.40;94041.00;;;;7391556;19;20137;-72
2022/07/28 11:22:33;;;;;;;5.15;4.32;;;;;27.10;94045.00;;;;7395238;19;20152;-73
2022/07/28 11:25:07;;;;;;;5.13;3.92;;;;;27.00;94044.00;;;;7389817;19;20165;-73
2022/07/28 11:27:50;;;;;;;4.45;4.05;;;;;27.60;94029.00;;;;7394557;19;20155;-72
2022/07/28 11:30:27;;;;;;;8.68;4.65;;;;;28.40;94023.00;;;;7393628;19;20136;-72
2022/07/28 11:32:55;;;;;;;4.97;4.40;;;;;28.40;94031.00;;;;7396589;19;20157;-73
2022/07/28 11:35:38;;;;;;;3.95;3.50;;;;;28.60;94024.00;;;;7396928;19;20125;-73
2022/07/28 11:38:13;;;;;;;4.97;3.88;;;;;29.90;94015.00;;;;7393811;19;20163;-71
2022/07/28 11:40:45;;;;;;;6.55;4.18;;;;;29.90;94031.00;;;;7394021;19;20597;-73
2022/07/28 11:43:29;;;;;;;4.97;4.47;;;;;28.70;94021.00;;;;7395654;19;20618;-72
2022/07/28 11:46:05;;;;;;;4.43;4.00;;;;;29.00;94011.00;;;;7393200;19;20141;-74
2022/07/28 11:48:46;;;;;;;6.90;4.00;;;;;29.80;94012.00;;;;7393812;19;20148;-70
2022/07/28 11:51:14;;;;;;;7.95;3.65;;;;;29.30;94021.00;;;;7393125;19;20145;-71
2022/07/28 11:53:49;;;;;;;5.22;4.40;;;;;29.10;94023.00;;;;7392191;19;20610;-71
2022/07/28 11:56:30;;;;;;;13.40;4.28;;;;;28.70;94030.00;;;;7394766;19;20144;-72
2022/07/28 11:59:06;;;;;;;8.38;4.15;;;;;28.10;94036.00;;;;7395865;19;20137;-74
2022/07/28 12:01:34;;;;;;;5.88;3.63;;;;;27.70;94033.00;;;;7391247;19;20162;-72
2022/07/28 12:04:13;;;;;;;6.28;4.30;;;;;27.00;94028.00;;;;7391079;19;20574;-70
2022/07/28 12:06:51;;;;;;;6.28;4.13;;;;;27.60;94034.00;;;;7393394;19;20172;-73
2022/07/28 12:09:19;;;;;;;5.00;3.85;;;;;27.60;94036.00;;;;7394192;19;20128;-74
2022/07/28 12:11:54;;;;;;;6.97;3.75;;;;;27.20;94031.00;;;;7389467;19;20168;-72
2022/07/28 12:14:29;;;;;;;5.00;3.90;;;;;27.10;94018.00;;;;7392459;19;20219;-73
2022/07/28 12:16:56;;;;;;;5.35;3.83;;;;;27.70;94010.00;;;;7394165;19;20153;-73
2022/07/28 12:19:29;;;;;;;5.55;3.97;;;;;28.70;94014.00;;;;7394061;19;20160;-72
2022/07/28 12:22:10;;;;;;;5.05;3.63;;;;;28.40;94001.00;;;;7391321;19;20569;-74
2022/07/28 12:24:42;;;;;;;11.65;4.00;;;;;29.70;93992.00;;;;7390774;19;20172;-71
2022/07/28 12:27:26;;;;;;;5.55;3.60;;;;;30.60;93980.00;;;;7393745;19;20136;-73
2022/07/28 12:30:01;;;;;;;4.25;3.50;;;;;30.60;93995.00;;;;7390850;19;20128;-76
2022/07/28 12:32:35;;;;;;;4.85;4.10;;;;;29.50;94004.00;;;;7391652;19;20172;-73
2022/07/28 12:35:03;;;;;;;9.02;3.92;;;;;29.30;93995.00;;;;7392064;19;20164;-72
2022/07/28 12:37:31;;;;;;;5.40;3.75;;;;;28.90;94002.00;;;;7396148;19;20166;-72
2022/07/28 12:40:07;;;;;;;4.93;3.65;;;;;28.30;94008.00;;;;7398614;19;20145;-73
2022/07/28 12:42:35;;;;;;;6.53;3.67;;;;;28.00;94013.00;;;;7399389;19;20498;-74
2022/07/28 12:45:06;;;;;;;4.90;3.70;;;;;28.00;94013.00;;;;7399870;19;20149;-72
2022/07/28 12:47:41;;;;;;;4.30;3.90;;;;;27.90;94007.00;;;;7398915;19;20129;-74
2022/07/28 12:50:18;;;;;;;4.65;3.72;;;;;28.40;94002.00;;;;7397885;19;20132;-74
2022/07/28 12:53:07;;;;;;;5.68;3.92;;;;;29.50;93989.00;;;;7398277;19;20144;-71
2022/07/28 12:55:35;;;;;;;4.65;3.40;;;;;29.60;93994.00;;;;7396024;19;20639;-72
2022/07/28 12:58:25;;;;;;;4.45;3.30;;;;;28.90;93974.00;;;;7397087;19;20189;-71